Time;durP1;ratioP1;P1;durP2;ratioP2;P2;SDS_P1;SDS_P2;PMS_P1;PMS_P2;Temp;Humidity;BMP_temperature;BMP_pressure;BME280_temperature;BME280_humidity;BME280_pressure;Samples;Min_cycle;Max_cycle;Signal;HPM_P1;HPM_P2
2021/10/30 00:01:22;;;;;;;59.87;31.20;;;6.20;99.90;;;;;;5008486;28;20162;-84
2021/10/30 00:03:50;;;;;;;45.23;26.23;;;6.20;99.90;;;;;;5025798;28;20412;-82
2021/10/30 00:06:17;;;;;;;53.00;28.33;;;5.90;99.90;;;;;;5025916;28;20455;-83
2021/10/30 00:08:43;;;;;;;57.23;28.50;;;6.10;99.90;;;;;;5026122;28;20472;-82
2021/10/30 00:11:08;;;;;;;49.70;27.40;;;6.10;99.90;;;;;;5025747;28;20378;-82
2021/10/30 00:13:34;;;;;;;53.90;31.57;;;6.20;99.90;;;;;;5008923;28;20375;-82
2021/10/30 00:16:01;;;;;;;51.77;29.03;;;6.10;99.90;;;;;;5026799;28;20253;-83
2021/10/30 00:18:30;;;;;;;51.10;27.00;;;6.00;99.90;;;;;;4992452;28;20420;-82
2021/10/30 00:20:58;;;;;;;54.13;31.63;;;6.10;99.90;;;;;;5011684;28;20429;-80
2021/10/30 00:23:24;;;;;;;56.67;29.40;;;6.10;99.90;;;;;;5032341;28;20487;-84
2021/10/30 00:25:51;;;;;;;56.77;32.90;;;6.20;99.90;;;;;;5034860;28;20706;-83
2021/10/30 00:28:17;;;;;;;41.67;24.50;;;6.20;99.90;;;;;;5008950;28;20419;-83
2021/10/30 00:30:45;;;;;;;54.33;29.53;;;6.10;99.90;;;;;;5026460;28;20500;-82
2021/10/30 00:33:11;;;;;;;50.60;28.27;;;5.90;99.90;;;;;;5026593;28;20393;-83
2021/10/30 00:35:37;;;;;;;40.80;26.63;;;5.90;99.90;;;;;;5025937;28;20196;-83
2021/10/30 00:38:03;;;;;;;50.33;29.50;;;6.00;99.90;;;;;;5026090;28;20595;-83
2021/10/30 00:40:29;;;;;;;43.00;27.03;;;6.10;99.90;;;;;;5024806;28;20225;-82
2021/10/30 00:42:55;;;;;;;82.47;29.40;;;6.20;99.90;;;;;;5025534;28;20162;-83
2021/10/30 00:45:20;;;;;;;46.30;27.03;;;6.20;99.90;;;;;;5024935;28;20408;-83
2021/10/30 00:47:46;;;;;;;43.63;24.60;;;6.20;99.90;;;;;;5025718;28;20166;-83
2021/10/30 00:50:12;;;;;;;46.23;26.23;;;6.20;99.90;;;;;;5025042;28;20654;-83
2021/10/30 00:52:39;;;;;;;49.20;24.77;;;6.50;99.90;;;;;;5025948;28;20261;-83
2021/10/30 00:55:09;;;;;;;46.93;25.37;;;6.30;99.90;;;;;;5008438;28;20197;-83
2021/10/30 00:57:38;;;;;;;48.47;28.03;;;6.20;99.90;;;;;;5026077;28;20763;-81
2021/10/30 01:00:06;;;;;;;39.80;23.80;;;6.10;99.90;;;;;;5025997;28;20389;-82
2021/10/30 01:02:31;;;;;;;50.27;25.40;;;6.20;99.90;;;;;;5025848;28;20434;-83
2021/10/30 01:04:57;;;;;;;53.00;27.90;;;6.00;99.90;;;;;;5025810;28;20415;-83
2021/10/30 01:07:23;;;;;;;43.17;24.83;;;6.10;99.90;;;;;;5026411;28;20221;-83
2021/10/30 01:09:52;;;;;;;43.53;26.70;;;6.10;99.90;;;;;;5026705;28;20173;-83
2021/10/30 01:12:18;;;;;;;39.77;25.83;;;6.10;99.90;;;;;;5009190;28;20497;-83
2021/10/30 01:14:45;;;;;;;45.53;27.00;;;6.10;99.90;;;;;;5026085;28;20453;-82
2021/10/30 01:17:11;;;;;;;46.53;26.00;;;6.00;99.90;;;;;;5026623;28;20400;-83
2021/10/30 01:19:37;;;;;;;37.10;25.80;;;6.10;99.90;;;;;;5026504;28;20396;-83
2021/10/30 01:22:04;;;;;;;38.13;22.47;;;6.00;99.90;;;;;;5026518;28;20431;-83
2021/10/30 01:24:30;;;;;;;41.53;25.40;;;6.20;99.90;;;;;;5010192;28;20168;-83
2021/10/30 01:26:56;;;;;;;39.67;23.90;;;6.10;99.90;;;;;;5029368;28;20433;-83
2021/10/30 01:29:23;;;;;;;34.97;22.90;;;6.10;99.90;;;;;;5030788;28;20400;-83
2021/10/30 01:31:50;;;;;;;45.23;23.63;;;6.00;99.90;;;;;;5032412;28;20395;-81
2021/10/30 01:34:16;;;;;;;34.97;19.30;;;6.30;99.90;;;;;;5039059;28;20392;-78
2021/10/30 01:36:42;;;;;;;36.40;21.13;;;6.30;99.90;;;;;;5039424;28;20376;-80
2021/10/30 01:39:09;;;;;;;42.37;21.83;;;6.20;99.90;;;;;;5039453;28;20776;-78
2021/10/30 01:41:36;;;;;;;29.80;19.30;;;6.20;99.90;;;;;;5034230;28;20466;-82
2021/10/30 01:44:03;;;;;;;33.67;21.33;;;6.30;99.90;;;;;;5011369;28;20696;-82
2021/10/30 01:46:29;;;;;;;29.47;18.77;;;6.20;99.90;;;;;;5011089;28;20379;-82
2021/10/30 01:48:55;;;;;;;33.00;16.20;;;6.20;99.90;;;;;;5028792;28;20464;-82
2021/10/30 01:51:22;;;;;;;28.53;20.30;;;6.00;99.90;;;;;;5028740;28;20487;-82
2021/10/30 01:53:48;;;;;;;26.27;16.10;;;6.10;99.90;;;;;;5028599;28;20569;-82
2021/10/30 01:56:15;;;;;;;31.93;19.03;;;6.00;99.90;;;;;;5028742;28;20455;-82
2021/10/30 01:58:41;;;;;;;25.80;18.83;;;6.00;99.90;;;;;;5028670;28;20463;-81
2021/10/30 02:01:08;;;;;;;25.77;18.83;;;6.00;99.90;;;;;;5020669;28;20359;-82
2021/10/30 02:03:34;;;;;;;25.50;15.67;;;5.90;99.90;;;;;;5020676;28;20407;-82
2021/10/30 02:06:02;;;;;;;28.90;17.47;;;6.00;99.90;;;;;;5037391;28;20395;-82
2021/10/30 02:08:29;;;;;;;26.47;17.47;;;5.80;99.90;;;;;;5014362;28;20400;-82
2021/10/30 02:10:56;;;;;;;24.60;15.50;;;5.90;99.90;;;;;;5029454;28;20478;-82
2021/10/30 02:13:22;;;;;;;20.90;16.40;;;5.90;99.90;;;;;;5028903;28;20423;-82
2021/10/30 02:15:49;;;;;;;21.40;15.63;;;5.80;99.90;;;;;;5029245;28;20440;-83
2021/10/30 02:18:16;;;;;;;17.93;13.50;;;5.80;99.90;;;;;;5028640;28;20403;-82
2021/10/30 02:20:42;;;;;;;22.13;14.00;;;5.60;99.90;;;;;;5028137;28;20402;-82
2021/10/30 02:23:08;;;;;;;25.33;16.23;;;5.60;99.90;;;;;;5028310;28;20397;-82
2021/10/30 02:25:34;;;;;;;27.43;14.30;;;5.60;99.90;;;;;;5010772;28;20400;-82
2021/10/30 02:28:00;;;;;;;29.03;16.63;;;5.60;99.90;;;;;;4993300;28;20416;-83
2021/10/30 02:30:26;;;;;;;28.57;17.60;;;5.60;99.90;;;;;;5027662;28;20371;-83
2021/10/30 02:32:52;;;;;;;22.10;14.37;;;5.50;99.90;;;;;;5009591;28;20196;-82
2021/10/30 02:35:19;;;;;;;27.00;16.80;;;5.40;99.90;;;;;;5026606;28;20439;-82
2021/10/30 02:37:45;;;;;;;26.90;17.80;;;5.40;99.90;;;;;;4994320;28;20404;-82
2021/10/30 02:40:11;;;;;;;33.47;16.57;;;5.50;99.90;;;;;;5002270;28;20458;-82
2021/10/30 02:42:38;;;;;;;28.03;18.00;;;5.50;99.90;;;;;;5006752;28;20379;-83
2021/10/30 02:45:05;;;;;;;30.50;19.67;;;5.40;99.90;;;;;;4989703;28;20814;-81
2021/10/30 02:47:32;;;;;;;31.30;18.97;;;5.30;99.90;;;;;;5006617;28;20898;-83
2021/10/30 02:49:58;;;;;;;27.13;17.10;;;5.30;99.90;;;;;;5006941;28;20413;-81
2021/10/30 02:52:25;;;;;;;28.70;16.30;;;5.40;99.90;;;;;;4965896;29;20896;-82
2021/10/30 02:54:51;;;;;;;26.80;14.97;;;5.30;99.90;;;;;;4966158;29;20494;-81
2021/10/30 02:57:17;;;;;;;31.77;16.70;;;5.30;99.90;;;;;;4965446;29;20797;-82
2021/10/30 02:59:43;;;;;;;30.93;19.20;;;5.30;99.90;;;;;;4965704;29;20444;-82
2021/10/30 03:02:09;;;;;;;34.33;18.07;;;5.40;99.90;;;;;;4965500;29;20504;-81
2021/10/30 03:04:35;;;;;;;35.63;19.83;;;5.30;99.90;;;;;;4965197;29;20163;-81
2021/10/30 03:07:01;;;;;;;25.60;17.47;;;5.40;99.90;;;;;;4965540;29;20385;-82
2021/10/30 03:09:27;;;;;;;37.90;19.00;;;5.20;99.90;;;;;;4932965;29;20162;-83
2021/10/30 03:11:53;;;;;;;26.73;15.97;;;5.20;99.90;;;;;;4965242;29;20179;-82
2021/10/30 03:14:19;;;;;;;30.10;17.67;;;5.20;99.90;;;;;;4965833;29;20194;-83
2021/10/30 03:16:44;;;;;;;31.03;18.17;;;5.20;99.90;;;;;;4966854;29;20395;-82
2021/10/30 03:19:10;;;;;;;30.83;17.50;;;5.40;99.90;;;;;;4934577;29;20171;-82
2021/10/30 03:21:37;;;;;;;26.47;17.43;;;5.30;99.90;;;;;;4950574;29;20263;-82
2021/10/30 03:24:03;;;;;;;33.40;18.30;;;5.50;99.90;;;;;;4983439;28;20186;-83
2021/10/30 03:26:28;;;;;;;30.20;19.20;;;5.40;99.90;;;;;;4992491;28;20393;-83
2021/10/30 03:28:55;;;;;;;30.97;19.10;;;5.40;99.90;;;;;;5007721;28;20397;-81
2021/10/30 03:31:20;;;;;;;30.90;18.27;;;5.50;99.90;;;;;;5006369;28;20188;-81
2021/10/30 03:33:48;;;;;;;39.93;21.87;;;5.40;99.90;;;;;;5012422;28;20404;-80
2021/10/30 03:36:14;;;;;;;28.03;16.40;;;5.50;99.90;;;;;;5015305;28;20185;-82
2021/10/30 03:38:40;;;;;;;36.77;18.50;;;5.10;99.90;;;;;;5007122;28;20368;-82
2021/10/30 03:41:06;;;;;;;26.67;15.20;;;5.20;99.90;;;;;;5006366;28;20449;-82
2021/10/30 03:43:32;;;;;;;27.43;16.50;;;5.20;99.90;;;;;;5006294;28;20493;-83
2021/10/30 03:45:59;;;;;;;25.83;16.33;;;5.20;99.90;;;;;;5003586;28;20874;-82
2021/10/30 03:48:25;;;;;;;28.27;16.93;;;5.30;99.90;;;;;;4987411;28;20435;-82
2021/10/30 03:50:51;;;;;;;30.58;19.27;;;5.20;99.90;;;;;;5005279;28;20569;-82
2021/10/30 03:53:19;;;;;;;32.27;17.50;;;5.10;99.90;;;;;;5005766;28;20265;-82
2021/10/30 03:55:47;;;;;;;26.87;16.73;;;5.00;99.90;;;;;;5005753;28;20449;-82
2021/10/30 03:58:14;;;;;;;24.03;15.43;;;5.00;99.90;;;;;;5005702;28;20389;-82
2021/10/30 04:00:40;;;;;;;23.60;15.90;;;5.10;99.90;;;;;;5005302;28;20829;-82
2021/10/30 04:03:06;;;;;;;26.23;18.47;;;5.10;99.90;;;;;;5005858;28;20393;-81
2021/10/30 04:05:32;;;;;;;24.33;16.13;;;5.20;99.90;;;;;;5005627;28;20368;-82
2021/10/30 04:07:58;;;;;;;22.23;15.40;;;5.20;99.90;;;;;;5007936;28;20870;-82
2021/10/30 04:10:24;;;;;;;25.37;15.57;;;5.10;99.90;;;;;;5006187;28;20193;-82
2021/10/30 04:12:50;;;;;;;26.07;15.43;;;5.10;99.90;;;;;;4988049;28;20169;-81
2021/10/30 04:15:16;;;;;;;36.30;14.07;;;5.10;99.90;;;;;;5005556;28;20472;-82
2021/10/30 04:17:42;;;;;;;26.17;16.90;;;5.10;99.90;;;;;;5006261;28;20455;-83
2021/10/30 04:20:10;;;;;;;24.93;15.70;;;5.00;99.90;;;;;;5005283;28;20375;-82
2021/10/30 04:22:36;;;;;;;25.03;14.80;;;5.20;99.90;;;;;;5004812;28;20198;-82
2021/10/30 04:25:03;;;;;;;23.10;16.03;;;5.00;99.90;;;;;;4971131;28;20424;-81
2021/10/30 04:27:29;;;;;;;24.80;16.27;;;5.00;99.90;;;;;;5005916;28;20386;-82
2021/10/30 04:29:55;;;;;;;23.13;14.13;;;5.10;99.90;;;;;;4971686;28;20472;-82
2021/10/30 04:32:21;;;;;;;23.90;15.50;;;5.20;99.90;;;;;;5005819;28;20393;-82
2021/10/30 04:34:49;;;;;;;28.53;15.40;;;5.30;99.90;;;;;;5005245;28;20226;-82
2021/10/30 04:37:16;;;;;;;26.53;16.57;;;5.20;99.90;;;;;;5005053;28;20414;-82
2021/10/30 04:39:45;;;;;;;22.60;16.60;;;5.20;99.90;;;;;;5005550;28;20445;-81
2021/10/30 04:42:11;;;;;;;25.43;16.17;;;5.30;99.90;;;;;;5024882;28;20888;-82
2021/10/30 04:44:38;;;;;;;29.93;17.87;;;5.10;99.90;;;;;;5024290;28;20367;-82
2021/10/30 04:47:04;;;;;;;31.40;16.40;;;5.30;99.90;;;;;;5025089;28;20442;-81
2021/10/30 04:49:30;;;;;;;27.30;17.23;;;5.20;99.90;;;;;;4989898;28;20427;-81
2021/10/30 04:51:56;;;;;;;24.23;16.27;;;5.40;99.90;;;;;;5024954;28;20401;-82
2021/10/30 04:54:22;;;;;;;26.73;16.83;;;5.20;99.90;;;;;;5006762;28;20392;-81
2021/10/30 04:56:47;;;;;;;21.70;16.20;;;5.20;99.90;;;;;;5024230;28;20420;-82
2021/10/30 04:59:13;;;;;;;24.90;16.67;;;5.30;99.90;;;;;;5026340;28;20173;-83
2021/10/30 05:01:39;;;;;;;24.73;15.93;;;5.10;99.90;;;;;;5028865;28;20166;-83
2021/10/30 05:04:05;;;;;;;23.27;13.77;;;5.20;99.90;;;;;;5028090;28;20224;-83
2021/10/30 05:06:30;;;;;;;22.30;16.83;;;5.30;99.90;;;;;;5028177;28;20203;-82
2021/10/30 05:08:56;;;;;;;29.50;16.40;;;5.20;99.90;;;;;;5028403;28;20173;-83
2021/10/30 05:11:22;;;;;;;23.33;15.93;;;5.30;99.90;;;;;;5027761;28;20169;-81
2021/10/30 05:13:48;;;;;;;24.40;13.30;;;5.20;99.90;;;;;;5009600;28;20268;-82
2021/10/30 05:16:13;;;;;;;21.73;16.90;;;5.20;99.90;;;;;;5027792;28;20263;-82
2021/10/30 05:18:39;;;;;;;26.80;15.87;;;5.10;99.90;;;;;;5027511;28;20168;-81
2021/10/30 05:21:08;;;;;;;26.97;18.13;;;5.10;99.90;;;;;;5027279;28;20200;-83
2021/10/30 05:23:37;;;;;;;18.10;13.67;;;5.20;99.90;;;;;;5027920;28;20392;-82
2021/10/30 05:26:03;;;;;;;29.00;14.90;;;5.30;99.90;;;;;;5028221;28;20157;-81
2021/10/30 05:28:29;;;;;;;21.17;15.00;;;5.10;99.90;;;;;;4993508;28;20865;-82
2021/10/30 05:30:55;;;;;;;20.97;13.30;;;5.20;99.90;;;;;;5027214;28;20386;-82
2021/10/30 05:33:21;;;;;;;23.07;16.13;;;5.20;99.90;;;;;;5028046;28;20217;-81
2021/10/30 05:35:48;;;;;;;20.63;15.50;;;5.10;99.90;;;;;;5027036;28;20499;-82
2021/10/30 05:38:16;;;;;;;28.07;14.77;;;5.00;99.90;;;;;;5027483;28;20158;-82
2021/10/30 05:40:42;;;;;;;22.10;16.03;;;5.10;99.90;;;;;;5027691;28;20453;-81
2021/10/30 05:43:10;;;;;;;20.80;13.97;;;5.10;99.90;;;;;;5028272;28;20427;-81
2021/10/30 05:45:38;;;;;;;24.50;13.70;;;5.00;99.90;;;;;;5028277;28;20378;-82
2021/10/30 05:48:06;;;;;;;21.40;14.57;;;4.90;99.90;;;;;;5027674;28;20367;-82
2021/10/30 05:50:32;;;;;;;24.13;12.87;;;4.90;99.90;;;;;;5027085;28;20400;-81
2021/10/30 05:52:58;;;;;;;25.90;14.93;;;4.80;99.90;;;;;;5028492;28;20404;-82
2021/10/30 05:55:24;;;;;;;26.30;15.33;;;5.10;99.90;;;;;;5028571;28;20444;-82
2021/10/30 05:57:50;;;;;;;27.43;15.00;;;5.20;99.90;;;;;;5028379;28;20432;-82
2021/10/30 06:00:16;;;;;;;22.77;13.80;;;5.20;99.90;;;;;;5031631;28;20400;-82
2021/10/30 06:02:42;;;;;;;17.33;12.53;;;5.30;99.90;;;;;;5032302;28;20406;-82
2021/10/30 06:05:09;;;;;;;19.60;12.63;;;5.10;99.90;;;;;;5032412;28;20170;-83
2021/10/30 06:07:34;;;;;;;18.63;11.50;;;5.00;99.90;;;;;;5014801;28;20488;-82
2021/10/30 06:10:00;;;;;;;19.20;13.60;;;4.90;99.90;;;;;;5028465;28;20778;-81
2021/10/30 06:12:28;;;;;;;24.07;14.50;;;4.90;99.90;;;;;;5029184;28;20195;-82
2021/10/30 06:14:54;;;;;;;19.47;14.53;;;5.00;99.90;;;;;;5029091;28;20422;-81
2021/10/30 06:17:20;;;;;;;16.37;12.67;;;5.10;99.90;;;;;;5029297;28;20400;-82
2021/10/30 06:19:47;;;;;;;21.80;15.27;;;4.90;99.90;;;;;;5028555;28;20396;-81
2021/10/30 06:22:14;;;;;;;22.50;14.13;;;5.00;99.90;;;;;;5028489;28;20410;-83
2021/10/30 06:24:41;;;;;;;20.30;13.50;;;5.00;99.90;;;;;;5011145;28;20403;-83
2021/10/30 06:27:08;;;;;;;21.20;13.13;;;5.00;99.90;;;;;;5030306;28;20393;-82
2021/10/30 06:29:34;;;;;;;22.20;13.83;;;4.80;99.90;;;;;;5031016;28;20393;-81
2021/10/30 06:32:00;;;;;;;23.40;14.10;;;5.00;99.90;;;;;;5020633;28;20371;-81
2021/10/30 06:34:26;;;;;;;15.57;11.97;;;5.20;99.90;;;;;;5027176;28;20359;-81
2021/10/30 06:36:52;;;;;;;25.20;15.47;;;5.30;99.90;;;;;;5027480;28;20393;-81
2021/10/30 06:39:18;;;;;;;21.50;13.57;;;5.30;99.90;;;;;;5027847;28;20447;-79
2021/10/30 06:41:46;;;;;;;24.43;17.33;;;5.40;99.90;;;;;;5028118;28;20215;-82
2021/10/30 06:44:24;;;;;;;21.60;13.93;;;5.30;99.90;;;;;;5034515;28;20162;-85
2021/10/30 06:46:52;;;;;;;19.80;15.47;;;5.10;99.90;;;;;;4971454;28;20468;-83
2021/10/30 06:49:18;;;;;;;18.57;13.10;;;5.20;99.90;;;;;;4970391;28;20402;-82
2021/10/30 06:51:45;;;;;;;19.97;14.23;;;5.20;99.90;;;;;;4986172;28;20808;-82
2021/10/30 06:54:11;;;;;;;24.83;16.83;;;5.40;99.90;;;;;;4987881;28;20496;-82
2021/10/30 06:56:41;;;;;;;17.67;15.10;;;5.20;99.90;;;;;;4939408;28;20537;-82
2021/10/30 06:59:07;;;;;;;24.57;16.37;;;5.30;99.90;;;;;;4986337;28;20431;-83
2021/10/30 07:01:35;;;;;;;25.53;15.73;;;5.40;99.90;;;;;;4988059;28;20377;-81
2021/10/30 07:04:03;;;;;;;26.90;14.27;;;5.30;99.90;;;;;;4953704;28;20379;-83
2021/10/30 07:06:29;;;;;;;18.13;13.87;;;5.20;99.90;;;;;;4968908;28;20380;-82
2021/10/30 07:08:56;;;;;;;28.13;16.67;;;5.20;99.90;;;;;;4984772;28;20404;-82
2021/10/30 07:11:23;;;;;;;24.60;14.03;;;5.20;99.90;;;;;;4985129;28;20158;-83
2021/10/30 07:13:49;;;;;;;29.50;17.10;;;5.40;99.90;;;;;;4984861;28;20399;-81
2021/10/30 07:16:16;;;;;;;25.40;14.50;;;5.50;99.90;;;;;;4984953;28;20417;-81
2021/10/30 07:18:43;;;;;;;30.30;21.30;;;5.50;99.90;;;;;;5020956;28;20420;-82
2021/10/30 07:21:08;;;;;;;21.07;15.77;;;5.60;99.90;;;;;;5026125;28;20428;-83
2021/10/30 07:23:34;;;;;;;22.97;15.23;;;5.80;99.90;;;;;;5008785;28;20389;-81
2021/10/30 07:26:04;;;;;;;19.50;15.03;;;5.90;99.90;;;;;;5027664;28;20169;-82
2021/10/30 07:28:29;;;;;;;21.93;14.70;;;6.00;99.90;;;;;;5026683;28;20409;-81
2021/10/30 07:30:55;;;;;;;24.07;15.00;;;6.10;99.90;;;;;;5026979;28;20409;-83
2021/10/30 07:33:21;;;;;;;26.70;17.03;;;6.40;99.90;;;;;;5027673;28;20510;-83
2021/10/30 07:35:47;;;;;;;22.83;15.27;;;6.30;99.90;;;;;;5027005;28;20220;-83
2021/10/30 07:38:13;;;;;;;23.03;14.70;;;6.40;99.90;;;;;;5009463;28;20412;-81
2021/10/30 07:40:41;;;;;;;16.77;13.80;;;6.60;99.90;;;;;;5029551;28;20231;-84
2021/10/30 07:43:07;;;;;;;25.17;15.40;;;6.60;99.90;;;;;;5008731;28;20485;-83
2021/10/30 07:45:34;;;;;;;19.10;15.47;;;6.70;99.90;;;;;;5025030;28;20424;-82
2021/10/30 07:48:01;;;;;;;27.17;14.77;;;6.90;99.90;;;;;;5008558;28;20405;-83
2021/10/30 07:50:28;;;;;;;19.70;15.30;;;7.00;99.90;;;;;;5008812;28;20396;-82
2021/10/30 07:52:58;;;;;;;19.30;14.30;;;7.10;99.90;;;;;;5026057;28;20759;-83
2021/10/30 07:55:24;;;;;;;23.27;15.77;;;7.20;99.90;;;;;;5009301;28;20479;-81
2021/10/30 07:57:50;;;;;;;18.00;14.50;;;7.60;99.90;;;;;;5026157;28;20423;-83
2021/10/30 08:00:15;;;;;;;23.03;14.70;;;7.50;99.90;;;;;;5026251;28;20161;-82
2021/10/30 08:02:43;;;;;;;21.53;16.37;;;7.40;99.90;;;;;;5025239;28;20166;-82
2021/10/30 08:05:11;;;;;;;23.17;16.53;;;7.70;99.90;;;;;;5026395;28;20169;-82
2021/10/30 08:07:39;;;;;;;24.33;15.20;;;8.30;99.90;;;;;;5008910;28;20383;-83
2021/10/30 08:10:09;;;;;;;17.57;14.00;;;8.60;99.90;;;;;;4976717;28;20408;-82
2021/10/30 08:12:35;;;;;;;29.03;18.33;;;9.10;99.90;;;;;;5026017;28;20389;-83
2021/10/30 08:15:02;;;;;;;21.60;15.67;;;9.40;99.90;;;;;;5025822;28;20471;-83
2021/10/30 08:17:28;;;;;;;22.63;16.87;;;9.60;99.90;;;;;;5025016;28;20401;-83
2021/10/30 08:19:54;;;;;;;19.07;15.00;;;10.10;99.90;;;;;;5025649;28;20845;-83
2021/10/30 08:22:20;;;;;;;22.20;13.80;;;10.00;99.90;;;;;;5025582;28;20219;-83
2021/10/30 08:24:46;;;;;;;19.97;14.47;;;10.00;99.90;;;;;;5025563;28;20204;-82
2021/10/30 08:27:14;;;;;;;21.53;15.40;;;10.40;99.90;;;;;;5008652;28;20173;-84
2021/10/30 08:29:41;;;;;;;19.93;14.97;;;10.80;99.90;;;;;;5010138;28;20406;-83
2021/10/30 08:32:10;;;;;;;19.30;14.03;;;11.30;99.90;;;;;;5026986;28;20891;-82
2021/10/30 08:34:36;;;;;;;21.17;16.00;;;11.80;99.90;;;;;;5026633;28;20904;-84
2021/10/30 08:37:04;;;;;;;18.77;14.07;;;12.50;99.90;;;;;;5014836;28;20432;-83
2021/10/30 08:39:31;;;;;;;19.30;15.10;;;13.00;99.90;;;;;;5033847;28;20439;-83
2021/10/30 08:41:58;;;;;;;18.60;15.70;;;13.40;99.90;;;;;;5049217;28;20418;-83
2021/10/30 08:44:24;;;;;;;20.23;16.13;;;14.20;99.90;;;;;;5032723;28;20439;-83
2021/10/30 08:46:51;;;;;;;25.43;16.90;;;14.30;99.90;;;;;;5028171;28;20486;-82
2021/10/30 08:49:19;;;;;;;23.40;16.67;;;14.20;99.90;;;;;;5028821;28;20426;-83
2021/10/30 08:51:45;;;;;;;21.33;16.10;;;14.50;99.90;;;;;;5028395;28;20400;-84
2021/10/30 08:54:12;;;;;;;20.10;15.90;;;15.50;99.90;;;;;;5029152;28;20748;-84
2021/10/30 08:56:39;;;;;;;20.97;16.30;;;15.90;99.90;;;;;;5027292;28;20449;-83
2021/10/30 08:59:07;;;;;;;20.70;16.43;;;16.30;99.90;;;;;;5028438;28;20396;-83
2021/10/30 09:01:50;;;;;;;24.77;16.97;;;16.00;99.90;;;;;;5029051;28;20405;-84
2021/10/30 09:04:18;;;;;;;22.77;17.20;;;15.80;99.90;;;;;;5028772;28;20393;-84
2021/10/30 09:06:59;;;;;;;25.53;17.70;;;16.50;99.90;;;;;;5028820;28;20435;-83
2021/10/30 09:09:26;;;;;;;21.50;16.67;;;16.70;99.90;;;;;;5027973;28;20475;-83
2021/10/30 09:11:56;;;;;;;22.93;15.57;;;16.40;99.90;;;;;;5029391;28;20427;-83
2021/10/30 09:14:24;;;;;;;17.90;16.13;;;15.80;99.90;;;;;;5028580;28;20476;-83
2021/10/30 09:17:12;;;;;;;25.33;19.73;;;15.80;99.90;;;;;;5028967;28;20598;-84
2021/10/30 09:19:41;;;;;;;24.67;17.83;;;16.80;99.90;;;;;;5028536;28;20425;-82
2021/10/30 09:22:07;;;;;;;23.63;17.87;;;17.00;99.90;;;;;;5028851;28;20427;-84
2021/10/30 09:25:02;;;;;;;25.47;19.60;;;17.00;99.90;;;;;;5011563;28;20455;-82
2021/10/30 09:27:44;;;;;;;26.77;18.60;;;16.40;99.90;;;;;;5012830;28;20384;-84
2021/10/30 09:30:10;;;;;;;20.73;17.57;;;16.40;99.90;;;;;;5030555;28;20470;-84
2021/10/30 09:32:36;;;;;;;21.97;18.57;;;16.60;99.90;;;;;;5029320;28;20393;-83
2021/10/30 09:35:03;;;;;;;24.80;17.90;;;16.60;99.90;;;;;;5030568;28;20467;-83
2021/10/30 09:37:34;;;;;;;24.67;18.80;;;16.10;99.90;;;;;;5011935;28;20500;-83
2021/10/30 09:40:17;;;;;;;23.63;19.63;;;16.00;99.90;;;;;;5011243;28;20486;-82
2021/10/30 09:42:45;;;;;;;22.40;18.00;;;14.70;99.90;;;;;;5029563;28;20420;-84
2021/10/30 09:45:13;;;;;;;21.10;18.20;;;15.40;99.90;;;;;;5011419;28;20433;-82
2021/10/30 09:47:44;;;;;;;20.27;17.40;;;15.40;99.90;;;;;;5029619;28;20988;-83
2021/10/30 09:50:29;;;;;;;26.47;17.57;;;15.70;99.90;;;;;;5014202;28;20396;-83
2021/10/30 09:52:56;;;;;;;30.13;17.70;;;15.90;99.90;;;;;;5029701;28;20420;-83
2021/10/30 09:55:23;;;;;;;18.20;16.23;;;16.10;99.90;;;;;;5027387;28;20474;-84
2021/10/30 09:57:59;;;;;;;23.57;18.70;;;16.20;99.90;;;;;;5033448;28;20420;-84
2021/10/30 10:00:25;;;;;;;22.77;18.87;;;16.50;99.90;;;;;;5014838;28;20433;-83
2021/10/30 10:02:57;;;;;;;20.10;17.80;;;16.50;99.90;;;;;;5040923;28;20432;-85
2021/10/30 10:05:24;;;;;;;22.97;17.67;;;15.90;99.90;;;;;;5004980;28;20468;-83
2021/10/30 10:07:52;;;;;;;21.50;17.17;;;15.30;99.90;;;;;;5008144;28;20441;-83
2021/10/30 10:10:21;;;;;;;19.87;17.00;;;14.50;99.90;;;;;;5007182;28;20555;-84
2021/10/30 10:12:50;;;;;;;23.80;18.10;;;14.30;99.90;;;;;;4990932;28;20421;-83
2021/10/30 10:15:18;;;;;;;23.93;18.30;;;15.30;99.90;;;;;;5006794;28;20480;-84
2021/10/30 10:17:47;;;;;;;23.33;19.27;;;15.50;99.90;;;;;;4977021;28;20457;-85
2021/10/30 10:20:13;;;;;;;23.53;20.10;;;15.80;99.90;;;;;;4976641;28;20409;-84
2021/10/30 10:22:41;;;;;;;20.93;17.17;;;17.50;99.90;;;;;;4974639;28;20445;-82
2021/10/30 10:25:34;;;;;;;21.83;17.77;;;18.50;99.90;;;;;;5007073;28;20413;-83
2021/10/30 10:28:37;;;;;;;25.30;21.30;;;18.50;99.90;;;;;;4990923;28;20421;-82
2021/10/30 10:31:23;;;;;;;24.10;17.37;;;18.30;99.90;;;;;;5007858;28;20424;-83
2021/10/30 10:34:07;;;;;;;21.23;18.40;;;17.70;99.90;;;;;;4991620;28;20433;-84
2021/10/30 10:36:33;;;;;;;27.77;20.50;;;17.10;99.90;;;;;;5020591;28;20471;-83
2021/10/30 10:39:15;;;;;;;23.53;18.60;;;16.40;99.90;;;;;;4995808;28;20404;-83
2021/10/30 10:41:55;;;;;;;19.63;17.50;;;15.70;99.90;;;;;;5007570;28;20416;-83
2021/10/30 10:44:52;;;;;;;22.43;19.07;;;13.90;99.90;;;;;;5008684;28;20482;-83
2021/10/30 10:47:50;;;;;;;25.40;18.63;;;14.60;99.90;;;;;;5003183;28;20458;-82
2021/10/30 10:50:31;;;;;;;21.07;18.00;;;13.40;99.90;;;;;;4990450;28;20389;-85
2021/10/30 10:53:15;;;;;;;21.90;18.87;;;14.20;99.90;;;;;;5008351;28;20400;-83
2021/10/30 10:56:04;;;;;;;22.30;19.10;;;14.90;99.90;;;;;;4976131;28;20472;-84
2021/10/30 10:58:30;;;;;;;23.87;19.17;;;15.10;99.90;;;;;;5005992;28;20784;-82
2021/10/30 11:01:09;;;;;;;22.13;18.67;;;14.80;99.90;;;;;;5008291;28;20456;-83
2021/10/30 11:03:43;;;;;;;24.47;20.10;;;15.30;99.90;;;;;;5008120;28;20428;-84
2021/10/30 11:06:13;;;;;;;27.80;21.37;;;15.40;99.90;;;;;;4989248;28;20405;-83
2021/10/30 11:08:39;;;;;;;23.93;20.27;;;16.00;99.90;;;;;;5006627;28;20437;-83
2021/10/30 11:11:12;;;;;;;24.13;21.40;;;16.60;99.90;;;;;;5007111;28;20401;-84
2021/10/30 11:13:49;;;;;;;23.67;20.40;;;16.10;99.90;;;;;;5007091;28;20402;-82
2021/10/30 11:16:22;;;;;;;22.87;19.30;;;17.50;99.90;;;;;;5006308;28;20436;-84
2021/10/30 11:19:03;;;;;;;23.60;20.30;;;18.10;99.90;;;;;;5006724;28;20424;-82
2021/10/30 11:21:43;;;;;;;22.53;20.20;;;17.80;99.90;;;;;;4984238;28;20502;-84
2021/10/30 11:24:23;;;;;;;22.27;19.53;;;16.60;99.90;;;;;;4938824;29;20858;-83
2021/10/30 11:26:58;;;;;;;24.40;19.63;;;17.10;99.90;;;;;;4947439;29;20535;-84
2021/10/30 11:29:26;;;;;;;23.30;20.43;;;17.50;99.90;;;;;;4948960;29;20484;-84
2021/10/30 11:31:56;;;;;;;22.90;17.70;;;18.90;99.90;;;;;;4947362;29;20416;-80
2021/10/30 11:34:24;;;;;;;20.60;18.50;;;19.60;99.90;;;;;;4945048;29;20412;-80
2021/10/30 11:36:55;;;;;;;21.70;17.70;;;19.40;99.90;;;;;;4945040;29;21055;-81
2021/10/30 11:39:29;;;;;;;21.50;17.87;;;18.50;99.90;;;;;;4945156;29;20474;-81
2021/10/30 11:41:56;;;;;;;23.63;18.83;;;17.40;99.90;;;;;;4933359;29;20454;-81
2021/10/30 11:44:24;;;;;;;21.40;18.43;;;17.30;99.90;;;;;;4913443;29;20404;-81
2021/10/30 11:47:00;;;;;;;21.77;19.47;;;17.60;99.90;;;;;;4927936;29;20423;-81
2021/10/30 11:49:30;;;;;;;22.27;19.93;;;18.00;99.90;;;;;;4912990;29;20419;-80
2021/10/30 11:52:07;;;;;;;22.20;19.80;;;17.60;99.90;;;;;;4929906;28;20478;-83
2021/10/30 11:54:35;;;;;;;24.40;21.07;;;16.90;99.90;;;;;;4960112;28;20772;-83
2021/10/30 11:57:03;;;;;;;23.23;20.77;;;16.50;99.90;;;;;;4974473;28;20414;-84
2021/10/30 11:59:29;;;;;;;21.20;18.60;;;16.20;99.90;;;;;;4969447;28;20391;-83
2021/10/30 12:01:55;;;;;;;23.77;20.90;;;15.30;99.90;;;;;;4985322;28;20525;-85
2021/10/30 12:04:28;;;;;;;26.07;21.70;;;15.70;99.90;;;;;;4969860;28;20163;-83
2021/10/30 12:07:00;;;;;;;28.80;22.50;;;15.80;99.90;;;;;;4927237;29;20191;-80
2021/10/30 12:09:39;;;;;;;26.97;21.10;;;15.30;99.90;;;;;;4912311;29;20412;-82
2021/10/30 12:12:10;;;;;;;24.73;19.50;;;15.20;99.90;;;;;;4890982;29;20414;-79
2021/10/30 12:14:40;;;;;;;26.07;20.70;;;15.40;99.90;;;;;;4872477;29;20780;-80
2021/10/30 12:17:20;;;;;;;21.10;18.77;;;15.30;99.90;;;;;;4856305;29;20411;-81
2021/10/30 12:19:56;;;;;;;27.13;19.90;;;15.10;99.90;;;;;;4870481;29;20407;-81
2021/10/30 12:22:26;;;;;;;26.50;20.90;;;14.60;99.90;;;;;;4856127;29;20526;-81
2021/10/30 12:25:12;;;;;;;26.87;21.50;;;14.50;99.90;;;;;;4887050;29;20406;-80
2021/10/30 12:27:52;;;;;;;22.67;18.67;;;14.40;99.90;;;;;;4888282;29;20411;-81
2021/10/30 12:30:25;;;;;;;22.13;18.30;;;14.30;99.90;;;;;;4889088;29;20426;-81
2021/10/30 12:32:55;;;;;;;23.03;18.73;;;14.10;99.90;;;;;;4887877;29;20435;-82
2021/10/30 12:35:26;;;;;;;21.70;18.57;;;13.90;99.90;;;;;;4848986;29;20525;-80
2021/10/30 12:37:54;;;;;;;24.47;19.10;;;13.80;99.90;;;;;;4869527;29;20426;-81
2021/10/30 12:40:49;;;;;;;27.03;20.77;;;13.70;99.90;;;;;;4885608;29;20525;-81